sensor_id;sensor_type;location;lat;lon;timestamp;pressure;altitude;pressure_sealevel;temperature;humidity
54876;BME280;40764;48.472;8.166;2023-02-14T00:01:07;100022.34;;;-0.09;97.99
54876;BME280;40764;48.472;8.166;2023-02-14T00:07:08;100018.34;;;-0.13;97.31
54876;BME280;40764;48.472;8.166;2023-02-14T00:13:09;100009.44;;;-0.13;97.50
54876;BME280;40764;48.472;8.166;2023-02-14T00:19:13;100010.47;;;-0.14;97.49
54876;BME280;40764;48.472;8.166;2023-02-14T00:25:15;100000.16;;;-0.25;97.30
54876;BME280;40764;48.472;8.166;2023-02-14T00:31:15;100002.72;;;-0.32;97.56
54876;BME280;40764;48.472;8.166;2023-02-14T00:37:34;99999.63;;;-0.21;97.26
54876;BME280;40764;48.472;8.166;2023-02-14T00:43:53;100007.41;;;-0.26;97.24
54876;BME280;40764;48.472;8.166;2023-02-14T00:49:54;99990.00;;;-0.38;96.91
54876;BME280;40764;48.472;8.166;2023-02-14T00:56:16;99990.38;;;-0.41;97.37
54876;BME280;40764;48.472;8.166;2023-02-14T01:02:27;99985.38;;;-0.44;96.96
54876;BME280;40764;48.472;8.166;2023-02-14T01:08:46;99996.78;;;-0.42;97.84
54876;BME280;40764;48.472;8.166;2023-02-14T01:14:47;100002.78;;;-0.40;97.37
54876;BME280;40764;48.472;8.166;2023-02-14T01:20:47;100000.84;;;-0.46;97.11
54876;BME280;40764;48.472;8.166;2023-02-14T01:26:48;100009.38;;;-0.43;97.33
54876;BME280;40764;48.472;8.166;2023-02-14T01:32:51;100005.94;;;-0.51;97.11
54876;BME280;40764;48.472;8.166;2023-02-14T01:38:54;100002.22;;;-0.50;97.60
54876;BME280;40764;48.472;8.166;2023-02-14T01:51:16;99996.88;;;-0.58;97.09
54876;BME280;40764;48.472;8.166;2023-02-14T01:57:32;99995.91;;;-0.57;96.89
54876;BME280;40764;48.472;8.166;2023-02-14T02:04:03;99995.09;;;-0.66;96.76
54876;BME280;40764;48.472;8.166;2023-02-14T02:10:00;99997.13;;;-0.68;97.08
54876;BME280;40764;48.472;8.166;2023-02-14T02:22:45;99985.28;;;-0.74;96.20
54876;BME280;40764;48.472;8.166;2023-02-14T02:48:59;99970.53;;;-0.78;97.22
54876;BME280;40764;48.472;8.166;2023-02-14T02:55:08;99963.03;;;-0.82;97.02
54876;BME280;40764;48.472;8.166;2023-02-14T03:01:15;99955.97;;;-0.83;96.82
54876;BME280;40764;48.472;8.166;2023-02-14T03:13:54;99957.94;;;-0.77;96.32
54876;BME280;40764;48.472;8.166;2023-02-14T03:33:07;99951.00;;;-0.72;95.85
54876;BME280;40764;48.472;8.166;2023-02-14T03:39:27;99946.44;;;-0.86;96.23
54876;BME280;40764;48.472;8.166;2023-02-14T03:51:57;99946.28;;;-0.93;96.76
54876;BME280;40764;48.472;8.166;2023-02-14T03:58:15;99954.06;;;-0.98;96.49
54876;BME280;40764;48.472;8.166;2023-02-14T04:04:25;99951.56;;;-0.99;96.70
54876;BME280;40764;48.472;8.166;2023-02-14T04:10:38;99956.38;;;-0.95;96.66
54876;BME280;40764;48.472;8.166;2023-02-14T04:16:41;99957.09;;;-1.01;96.08
54876;BME280;40764;48.472;8.166;2023-02-14T04:23:00;99958.13;;;-1.02;96.03
54876;BME280;40764;48.472;8.166;2023-02-14T04:29:00;99954.13;;;-1.06;96.12
54876;BME280;40764;48.472;8.166;2023-02-14T04:35:01;99956.31;;;-1.09;96.13
54876;BME280;40764;48.472;8.166;2023-02-14T04:41:04;99950.72;;;-1.00;96.30
54876;BME280;40764;48.472;8.166;2023-02-14T04:47:05;99955.00;;;-0.90;95.95
54876;BME280;40764;48.472;8.166;2023-02-14T04:53:06;99947.84;;;-0.98;95.93
54876;BME280;40764;48.472;8.166;2023-02-14T04:59:06;99950.41;;;-1.05;95.55
54876;BME280;40764;48.472;8.166;2023-02-14T05:05:07;99959.56;;;-1.14;95.98
54876;BME280;40764;48.472;8.166;2023-02-14T05:11:13;99959.03;;;-1.17;95.77
54876;BME280;40764;48.472;8.166;2023-02-14T05:17:17;99952.84;;;-1.18;95.93
54876;BME280;40764;48.472;8.166;2023-02-14T05:23:26;99950.75;;;-1.31;95.94
54876;BME280;40764;48.472;8.166;2023-02-14T05:29:28;99952.66;;;-1.47;96.88
54876;BME280;40764;48.472;8.166;2023-02-14T05:35:30;99945.19;;;-1.29;97.26
54876;BME280;40764;48.472;8.166;2023-02-14T05:41:30;99955.19;;;-1.15;96.79
54876;BME280;40764;48.472;8.166;2023-02-14T05:47:31;99948.38;;;-1.26;95.99
54876;BME280;40764;48.472;8.166;2023-02-14T05:53:39;99961.31;;;-1.29;95.74
54876;BME280;40764;48.472;8.166;2023-02-14T05:59:43;99958.63;;;-1.29;96.83
54876;BME280;40764;48.472;8.166;2023-02-14T06:05:53;99961.97;;;-1.27;95.92
54876;BME280;40764;48.472;8.166;2023-02-14T06:11:54;99967.50;;;-1.29;96.18
54876;BME280;40764;48.472;8.166;2023-02-14T06:17:56;99969.53;;;-1.31;96.21
54876;BME280;40764;48.472;8.166;2023-02-14T06:23:59;99969.19;;;-1.28;95.39
54876;BME280;40764;48.472;8.166;2023-02-14T06:29:59;99973.41;;;-1.33;95.58
54876;BME280;40764;48.472;8.166;2023-02-14T06:36:00;99974.25;;;-1.33;94.66
54876;BME280;40764;48.472;8.166;2023-02-14T06:42:10;99979.78;;;-1.34;94.88
54876;BME280;40764;48.472;8.166;2023-02-14T06:48:13;99973.03;;;-1.30;95.04
54876;BME280;40764;48.472;8.166;2023-02-14T06:54:15;99977.69;;;-1.24;94.88
54876;BME280;40764;48.472;8.166;2023-02-14T07:00:22;99984.22;;;-1.18;95.07
54876;BME280;40764;48.472;8.166;2023-02-14T07:06:26;99988.56;;;-1.17;94.70
54876;BME280;40764;48.472;8.166;2023-02-14T07:12:32;99985.03;;;-1.10;94.78
54876;BME280;40764;48.472;8.166;2023-02-14T07:18:34;99982.34;;;-1.10;94.91
54876;BME280;40764;48.472;8.166;2023-02-14T07:24:34;100000.06;;;-1.01;94.59
54876;BME280;40764;48.472;8.166;2023-02-14T07:30:35;99993.31;;;-0.97;94.40
54876;BME280;40764;48.472;8.166;2023-02-14T07:36:47;99992.13;;;-0.94;94.31
54876;BME280;40764;48.472;8.166;2023-02-14T07:42:52;99990.06;;;-0.84;93.61
54876;BME280;40764;48.472;8.166;2023-02-14T07:48:53;99992.78;;;-0.69;93.69
54876;BME280;40764;48.472;8.166;2023-02-14T07:55:03;99979.34;;;-0.69;93.63
54876;BME280;40764;48.472;8.166;2023-02-14T08:01:04;99976.56;;;-0.53;93.49
54876;BME280;40764;48.472;8.166;2023-02-14T08:07:04;99965.66;;;-0.37;93.53
54876;BME280;40764;48.472;8.166;2023-02-14T08:13:05;99968.94;;;-0.26;93.57
54876;BME280;40764;48.472;8.166;2023-02-14T08:19:05;99975.16;;;-0.11;93.72
54876;BME280;40764;48.472;8.166;2023-02-14T08:25:06;99969.63;;;0.05;93.56
54876;BME280;40764;48.472;8.166;2023-02-14T08:31:06;99962.94;;;0.30;93.90
54876;BME280;40764;48.472;8.166;2023-02-14T08:37:06;99969.31;;;0.59;93.31
54876;BME280;40764;48.472;8.166;2023-02-14T08:43:07;99962.34;;;0.65;93.72
54876;BME280;40764;48.472;8.166;2023-02-14T08:49:08;99958.28;;;0.90;94.10
54876;BME280;40764;48.472;8.166;2023-02-14T08:55:10;99949.19;;;1.12;94.08
54876;BME280;40764;48.472;8.166;2023-02-14T09:01:12;99956.78;;;1.45;93.48
54876;BME280;40764;48.472;8.166;2023-02-14T09:07:13;99953.44;;;1.71;93.08
54876;BME280;40764;48.472;8.166;2023-02-14T09:13:13;99954.66;;;1.96;92.56
54876;BME280;40764;48.472;8.166;2023-02-14T09:19:14;99952.50;;;2.13;91.13
54876;BME280;40764;48.472;8.166;2023-02-14T09:25:15;99945.31;;;1.92;93.29
54876;BME280;40764;48.472;8.166;2023-02-14T09:31:18;99932.38;;;2.15;92.46
54876;BME280;40764;48.472;8.166;2023-02-14T09:37:18;99933.91;;;2.31;91.98
54876;BME280;40764;48.472;8.166;2023-02-14T09:49:52;99927.88;;;2.77;90.49
54876;BME280;40764;48.472;8.166;2023-02-14T10:02:43;99925.59;;;2.74;91.59
54876;BME280;40764;48.472;8.166;2023-02-14T10:15:16;99908.88;;;3.31;89.14
54876;BME280;40764;48.472;8.166;2023-02-14T10:21:43;99914.47;;;3.63;88.52
54876;BME280;40764;48.472;8.166;2023-02-14T10:27:45;99899.06;;;3.90;88.32
54876;BME280;40764;48.472;8.166;2023-02-14T10:33:53;99897.81;;;3.92;86.93
54876;BME280;40764;48.472;8.166;2023-02-14T10:52:37;99872.47;;;4.31;87.84
54876;BME280;40764;48.472;8.166;2023-02-14T10:58:40;99864.69;;;4.55;87.10
54876;BME280;40764;48.472;8.166;2023-02-14T11:04:42;99857.72;;;4.72;87.02
54876;BME280;40764;48.472;8.166;2023-02-14T11:10:43;99847.28;;;4.76;85.38
54876;BME280;40764;48.472;8.166;2023-02-14T11:16:43;99840.75;;;4.83;85.15
54876;BME280;40764;48.472;8.166;2023-02-14T11:22:43;99835.38;;;5.08;84.40
54876;BME280;40764;48.472;8.166;2023-02-14T11:28:49;99836.16;;;5.15;83.89
54876;BME280;40764;48.472;8.166;2023-02-14T11:41:02;99810.59;;;5.29;83.41
54876;BME280;40764;48.472;8.166;2023-02-14T11:47:15;99809.63;;;5.24;83.25
54876;BME280;40764;48.472;8.166;2023-02-14T11:53:21;99793.56;;;5.22;83.52
54876;BME280;40764;48.472;8.166;2023-02-14T11:59:45;99792.97;;;5.20;83.77
54876;BME280;40764;48.472;8.166;2023-02-14T12:05:48;99791.47;;;5.24;83.51
54876;BME280;40764;48.472;8.166;2023-02-14T12:12:16;99784.56;;;5.04;84.00
54876;BME280;40764;48.472;8.166;2023-02-14T12:25:13;99766.16;;;5.31;83.84
54876;BME280;40764;48.472;8.166;2023-02-14T12:31:16;99761.34;;;5.33;82.87
54876;BME280;40764;48.472;8.166;2023-02-14T12:37:30;99757.34;;;5.35;81.93
54876;BME280;40764;48.472;8.166;2023-02-14T12:43:56;99754.41;;;5.37;82.15
54876;BME280;40764;48.472;8.166;2023-02-14T12:50:27;99744.72;;;5.47;81.41
54876;BME280;40764;48.472;8.166;2023-02-14T13:09:05;99723.47;;;5.44;82.25
54876;BME280;40764;48.472;8.166;2023-02-14T13:15:24;99718.13;;;5.38;82.20
54876;BME280;40764;48.472;8.166;2023-02-14T13:21:30;99721.81;;;5.43;82.16
54876;BME280;40764;48.472;8.166;2023-02-14T13:27:36;99710.44;;;5.71;80.39
54876;BME280;40764;48.472;8.166;2023-02-14T13:33:41;99706.06;;;5.70;81.10
54876;BME280;40764;48.472;8.166;2023-02-14T13:40:03;99711.63;;;5.75;81.38
54876;BME280;40764;48.472;8.166;2023-02-14T13:46:05;99705.81;;;5.72;81.40
54876;BME280;40764;48.472;8.166;2023-02-14T13:52:05;99698.97;;;5.87;80.57
54876;BME280;40764;48.472;8.166;2023-02-14T13:58:14;99700.78;;;5.75;80.93
54876;BME280;40764;48.472;8.166;2023-02-14T14:10:43;99688.81;;;5.65;82.51
54876;BME280;40764;48.472;8.166;2023-02-14T14:16:56;99686.00;;;5.71;82.07
54876;BME280;40764;48.472;8.166;2023-02-14T14:22:59;99682.19;;;5.79;82.83
54876;BME280;40764;48.472;8.166;2023-02-14T14:29:00;99684.34;;;5.88;81.89
54876;BME280;40764;48.472;8.166;2023-02-14T14:35:02;99683.53;;;6.18;80.17
54876;BME280;40764;48.472;8.166;2023-02-14T14:41:02;99678.84;;;5.95;80.82
54876;BME280;40764;48.472;8.166;2023-02-14T14:47:03;99681.63;;;5.70;81.74
54876;BME280;40764;48.472;8.166;2023-02-14T14:53:13;99685.03;;;5.47;82.30
54876;BME280;40764;48.472;8.166;2023-02-14T14:59:31;99674.50;;;5.57;81.48
54876;BME280;40764;48.472;8.166;2023-02-14T15:05:39;99675.94;;;5.42;82.30
54876;BME280;40764;48.472;8.166;2023-02-14T15:11:40;99678.00;;;5.76;81.47
54876;BME280;40764;48.472;8.166;2023-02-14T15:18:04;99675.22;;;5.83;80.52
54876;BME280;40764;48.472;8.166;2023-02-14T15:24:10;99685.28;;;5.64;81.48
54876;BME280;40764;48.472;8.166;2023-02-14T15:36:19;99672.91;;;5.13;82.98
54876;BME280;40764;48.472;8.166;2023-02-14T15:42:29;99680.59;;;4.91;83.96
54876;BME280;40764;48.472;8.166;2023-02-14T15:48:32;99673.72;;;4.14;86.53
54876;BME280;40764;48.472;8.166;2023-02-14T15:54:37;99678.91;;;3.33;90.47
54876;BME280;40764;48.472;8.166;2023-02-14T16:00:38;99674.34;;;3.14;93.16
54876;BME280;40764;48.472;8.166;2023-02-14T16:06:43;99670.63;;;3.08;92.37
54876;BME280;40764;48.472;8.166;2023-02-14T16:19:31;99673.81;;;2.72;94.01
54876;BME280;40764;48.472;8.166;2023-02-14T16:25:31;99679.44;;;2.64;93.62
54876;BME280;40764;48.472;8.166;2023-02-14T16:31:32;99684.19;;;2.75;94.17
54876;BME280;40764;48.472;8.166;2023-02-14T16:37:33;99694.38;;;2.46;94.00
54876;BME280;40764;48.472;8.166;2023-02-14T16:43:34;99684.19;;;2.42;95.22
54876;BME280;40764;48.472;8.166;2023-02-14T16:49:34;99696.66;;;2.49;95.46
54876;BME280;40764;48.472;8.166;2023-02-14T16:55:34;99692.91;;;2.57;95.74
54876;BME280;40764;48.472;8.166;2023-02-14T17:01:35;99703.72;;;2.57;95.47
54876;BME280;40764;48.472;8.166;2023-02-14T17:07:36;99705.38;;;2.52;95.18
54876;BME280;40764;48.472;8.166;2023-02-14T17:13:39;99711.19;;;2.42;96.85
54876;BME280;40764;48.472;8.166;2023-02-14T17:19:41;99717.16;;;2.17;96.72
54876;BME280;40764;48.472;8.166;2023-02-14T17:25:42;99715.44;;;1.97;98.09
54876;BME280;40764;48.472;8.166;2023-02-14T17:31:42;99722.03;;;1.74;99.14
54876;BME280;40764;48.472;8.166;2023-02-14T17:37:43;99713.09;;;1.74;100.00
54876;BME280;40764;48.472;8.166;2023-02-14T17:43:44;99714.59;;;1.83;100.00
54876;BME280;40764;48.472;8.166;2023-02-14T17:49:44;99713.19;;;1.46;99.47
54876;BME280;40764;48.472;8.166;2023-02-14T17:55:47;99703.03;;;1.13;100.00
54876;BME280;40764;48.472;8.166;2023-02-14T18:01:48;99709.47;;;1.47;100.00
54876;BME280;40764;48.472;8.166;2023-02-14T18:07:50;99711.53;;;1.45;100.00
54876;BME280;40764;48.472;8.166;2023-02-14T18:13:52;99707.00;;;1.59;100.00
54876;BME280;40764;48.472;8.166;2023-02-14T18:19:54;99705.72;;;1.48;100.00
54876;BME280;40764;48.472;8.166;2023-02-14T18:25:56;99711.56;;;1.58;99.78
54876;BME280;40764;48.472;8.166;2023-02-14T18:31:56;99707.13;;;1.44;100.00
54876;BME280;40764;48.472;8.166;2023-02-14T18:37:57;99707.34;;;1.42;100.00
54876;BME280;40764;48.472;8.166;2023-02-14T18:43:57;99696.34;;;1.37;100.00
54876;BME280;40764;48.472;8.166;2023-02-14T18:49:57;99694.84;;;1.28;100.00
54876;BME280;40764;48.472;8.166;2023-02-14T18:55:58;99686.88;;;1.13;100.00
54876;BME280;40764;48.472;8.166;2023-02-14T19:01:58;99690.16;;;1.09;100.00
54876;BME280;40764;48.472;8.166;2023-02-14T19:07:58;99681.66;;;1.05;100.00
54876;BME280;40764;48.472;8.166;2023-02-14T19:14:01;99682.41;;;0.92;100.00
54876;BME280;40764;48.472;8.166;2023-02-14T19:20:02;99673.13;;;0.67;100.00
54876;BME280;40764;48.472;8.166;2023-02-14T19:26:12;99681.50;;;0.57;100.00
54876;BME280;40764;48.472;8.166;2023-02-14T19:32:13;99668.41;;;0.48;100.00
54876;BME280;40764;48.472;8.166;2023-02-14T19:38:13;99662.38;;;0.46;100.00
54876;BME280;40764;48.472;8.166;2023-02-14T19:44:14;99647.06;;;0.46;100.00
54876;BME280;40764;48.472;8.166;2023-02-14T19:50:16;99640.22;;;0.44;100.00
54876;BME280;40764;48.472;8.166;2023-02-14T19:56:22;99633.31;;;0.07;100.00
54876;BME280;40764;48.472;8.166;2023-02-14T20:02:23;99629.97;;;0.05;100.00
54876;BME280;40764;48.472;8.166;2023-02-14T20:08:23;99619.72;;;0.15;100.00
54876;BME280;40764;48.472;8.166;2023-02-14T20:14:32;99616.69;;;0.24;100.00
54876;BME280;40764;48.472;8.166;2023-02-14T20:20:33;99610.22;;;0.19;99.94
54876;BME280;40764;48.472;8.166;2023-02-14T20:26:54;99601.09;;;0.13;99.96
54876;BME280;40764;48.472;8.166;2023-02-14T20:32:55;99595.22;;;0.03;100.00
54876;BME280;40764;48.472;8.166;2023-02-14T20:38:56;99600.41;;;0.33;98.78
54876;BME280;40764;48.472;8.166;2023-02-14T20:44:57;99599.97;;;0.01;97.52
54876;BME280;40764;48.472;8.166;2023-02-14T20:50:57;99591.75;;;-0.12;99.19
54876;BME280;40764;48.472;8.166;2023-02-14T20:56:58;99588.81;;;-0.17;99.06
54876;BME280;40764;48.472;8.166;2023-02-14T21:02:58;99588.72;;;-0.03;98.95
54876;BME280;40764;48.472;8.166;2023-02-14T21:08:59;99579.09;;;-0.40;99.77
54876;BME280;40764;48.472;8.166;2023-02-14T21:14:59;99571.28;;;-0.35;99.86
54876;BME280;40764;48.472;8.166;2023-02-14T21:21:10;99573.97;;;-0.35;100.00
54876;BME280;40764;48.472;8.166;2023-02-14T21:27:11;99568.78;;;-0.15;100.00
54876;BME280;40764;48.472;8.166;2023-02-14T21:33:12;99562.91;;;-0.25;99.84
54876;BME280;40764;48.472;8.166;2023-02-14T21:39:14;99569.00;;;-0.74;100.00
54876;BME280;40764;48.472;8.166;2023-02-14T21:45:14;99566.56;;;-0.54;100.00
54876;BME280;40764;48.472;8.166;2023-02-14T21:51:34;99568.59;;;-0.56;100.00
54876;BME280;40764;48.472;8.166;2023-02-14T21:57:34;99562.78;;;-0.38;100.00
54876;BME280;40764;48.472;8.166;2023-02-14T22:03:34;99560.84;;;-0.44;100.00
54876;BME280;40764;48.472;8.166;2023-02-14T22:09:37;99569.41;;;-0.34;100.00
54876;BME280;40764;48.472;8.166;2023-02-14T22:15:37;99567.00;;;-0.50;100.00
54876;BME280;40764;48.472;8.166;2023-02-14T22:21:41;99571.84;;;0.04;100.00
54876;BME280;40764;48.472;8.166;2023-02-14T22:27:41;99569.78;;;0.06;99.09
54876;BME280;40764;48.472;8.166;2023-02-14T22:33:42;99560.72;;;-0.15;99.24
54876;BME280;40764;48.472;8.166;2023-02-14T22:39:43;99558.75;;;-0.27;100.00
54876;BME280;40764;48.472;8.166;2023-02-14T22:45:43;99558.09;;;-0.08;100.00
54876;BME280;40764;48.472;8.166;2023-02-14T22:51:44;99553.41;;;0.01;100.00
54876;BME280;40764;48.472;8.166;2023-02-14T22:57:44;99556.69;;;0.24;99.78
54876;BME280;40764;48.472;8.166;2023-02-14T23:03:47;99551.44;;;-0.12;99.30
54876;BME280;40764;48.472;8.166;2023-02-14T23:09:48;99548.69;;;-0.19;100.00
54876;BME280;40764;48.472;8.166;2023-02-14T23:15:51;99553.53;;;-0.29;100.00
54876;BME280;40764;48.472;8.166;2023-02-14T23:22:25;99550.72;;;-0.64;100.00
54876;BME280;40764;48.472;8.166;2023-02-14T23:28:26;99542.25;;;-0.46;100.00
54876;BME280;40764;48.472;8.166;2023-02-14T23:34:29;99541.84;;;0.00;100.00
54876;BME280;40764;48.472;8.166;2023-02-14T23:40:30;99539.94;;;-0.49;100.00
54876;BME280;40764;48.472;8.166;2023-02-14T23:46:55;99537.69;;;-0.67;100.00
54876;BME280;40764;48.472;8.166;2023-02-14T23:52:56;99538.97;;;-0.41;100.00
54876;BME280;40764;48.472;8.166;2023-02-14T23:58:57;99534.41;;;-0.62;100.00
